createdAt,value
2022-11-29T00:03:20.922Z,5.05
2022-11-29T00:07:33.292Z,4.99
2022-11-29T00:12:03.967Z,4.93
2022-11-29T00:16:16.600Z,4.89
2022-11-29T00:20:28.914Z,4.85
2022-11-29T00:24:43.207Z,4.92
2022-11-29T00:28:55.711Z,4.93
2022-11-29T00:33:08.063Z,4.94
2022-11-29T00:37:21.177Z,4.93
2022-11-29T00:41:33.707Z,4.92
2022-11-29T00:45:46.063Z,4.94
2022-11-29T00:49:58.362Z,4.92
2022-11-29T00:54:10.615Z,4.96
2022-11-29T00:58:23.743Z,4.94
2022-11-29T01:02:36.095Z,4.85
2022-11-29T01:06:51.938Z,4.86
2022-11-29T01:11:20.687Z,4.93
2022-11-29T01:15:33.297Z,4.90
2022-11-29T01:19:50.637Z,4.93
2022-11-29T01:24:03.379Z,4.89
2022-11-29T01:28:15.654Z,4.94
2022-11-29T01:32:28.463Z,4.95
2022-11-29T01:36:41.216Z,4.99
2022-11-29T01:41:02.588Z,4.97
2022-11-29T01:45:23.626Z,4.92
2022-11-29T01:49:43.662Z,4.92
2022-11-29T01:53:56.667Z,4.83
2022-11-29T01:58:10.080Z,4.92
2022-11-29T02:02:33.414Z,4.88
2022-11-29T02:06:47.257Z,4.83
2022-11-29T02:11:29.793Z,4.96
2022-11-29T02:15:54.756Z,5.01
2022-11-29T02:20:40.855Z,5.09
2022-11-29T02:25:22.772Z,5.03
2022-11-29T02:30:05.757Z,4.96
2022-11-29T02:34:31.686Z,5.07
2022-11-29T02:39:28.802Z,5.16
2022-11-29T02:44:03.890Z,5.11
2022-11-29T02:48:42.105Z,5.11
2022-11-29T02:53:06.924Z,5.14
2022-11-29T02:57:44.054Z,5.18
2022-11-29T03:02:12.812Z,5.19
2022-11-29T03:06:36.523Z,5.16
2022-11-29T03:11:07.521Z,5.09
2022-11-29T03:15:36.995Z,5.08
2022-11-29T03:20:14.771Z,5.04
2022-11-29T03:24:42.797Z,4.95
2022-11-29T03:29:24.106Z,4.99
2022-11-29T03:34:21.462Z,5.08
2022-11-29T03:38:42.813Z,5.07
2022-11-29T03:43:06.719Z,5.11
2022-11-29T03:47:40.831Z,5.24
2022-11-29T03:52:14.971Z,5.47
2022-11-29T03:56:40.587Z,5.26
2022-11-29T04:01:01.037Z,5.21
2022-11-29T04:05:22.418Z,5.15
2022-11-29T04:09:37.446Z,5.03
2022-11-29T04:14:11.589Z,5.21
2022-11-29T04:19:08.494Z,5.05
2022-11-29T04:23:39.606Z,4.98
2022-11-29T04:28:17.167Z,5.15
2022-11-29T04:32:51.329Z,5.08
2022-11-29T04:37:21.819Z,5.18
2022-11-29T04:41:59.987Z,5.22
2022-11-29T04:46:29.983Z,5.16
2022-11-29T04:50:53.959Z,5.00
2022-11-29T04:55:31.008Z,5.12
2022-11-29T05:00:10.700Z,5.09
2022-11-29T05:04:30.985Z,5.01
2022-11-29T05:08:56.820Z,5.06
2022-11-29T05:13:28.806Z,5.10
2022-11-29T05:18:06.035Z,5.16
2022-11-29T05:22:31.991Z,5.14
2022-11-29T05:27:17.190Z,5.16
2022-11-29T05:31:49.862Z,5.10
2022-11-29T05:36:38.977Z,5.08
2022-11-29T05:41:01.551Z,5.15
2022-11-29T05:45:18.979Z,5.01
2022-11-29T05:49:44.187Z,5.15
2022-11-29T05:54:19.217Z,5.16
2022-11-29T05:58:55.198Z,5.15
2022-11-29T06:03:24.446Z,5.18
2022-11-29T06:07:55.333Z,5.22
2022-11-29T06:12:19.627Z,5.18
2022-11-29T06:16:54.298Z,5.21
2022-11-29T06:21:29.213Z,5.23
2022-11-29T06:26:03.648Z,5.11
2022-11-29T06:30:23.902Z,5.22
2022-11-29T06:34:59.970Z,5.21
2022-11-29T06:39:12.564Z,5.16
2022-11-29T06:43:28.418Z,5.25
2022-11-29T06:47:53.453Z,5.15
2022-11-29T06:52:34.878Z,5.14
2022-11-29T06:57:03.805Z,5.19
2022-11-29T07:01:28.137Z,5.23
2022-11-29T07:05:41.629Z,5.11
2022-11-29T07:10:00.318Z,5.13
2022-11-29T07:14:13.431Z,5.17
2022-11-29T07:18:45.384Z,5.19
2022-11-29T07:23:14.039Z,5.32
2022-11-29T07:27:49.480Z,5.39
2022-11-29T07:32:29.675Z,5.41
2022-11-29T07:36:59.728Z,5.34
2022-11-29T07:41:18.319Z,5.49
2022-11-29T07:45:34.183Z,5.59
2022-11-29T07:49:46.474Z,5.58
2022-11-29T07:53:58.869Z,5.56
2022-11-29T07:58:15.683Z,5.65
2022-11-29T08:02:29.644Z,5.70
2022-11-29T08:06:41.982Z,5.55
2022-11-29T08:10:54.337Z,5.76
2022-11-29T08:15:07.372Z,5.77
2022-11-29T08:19:19.645Z,5.92
2022-11-29T08:23:31.934Z,6.02
2022-11-29T08:27:44.178Z,5.91
2022-11-29T08:31:56.634Z,6.09
2022-11-29T08:36:14.403Z,6.14
2022-11-29T08:40:26.787Z,6.17
2022-11-29T08:44:39.049Z,6.27
2022-11-29T08:48:51.456Z,6.26
2022-11-29T08:53:22.019Z,6.27
2022-11-29T08:57:41.577Z,6.49
2022-11-29T09:01:53.954Z,6.62
2022-11-29T09:06:12.699Z,6.75
2022-11-29T09:10:25.167Z,6.75
2022-11-29T09:14:37.458Z,6.79
2022-11-29T09:18:52.173Z,6.70
2022-11-29T09:23:04.885Z,6.87
2022-11-29T09:27:17.205Z,7.02
2022-11-29T09:31:30.682Z,6.85
2022-11-29T09:35:43.343Z,6.94
2022-11-29T09:39:55.678Z,7.03
2022-11-29T09:44:07.891Z,7.26
2022-11-29T09:48:26.656Z,7.10
2022-11-29T09:52:50.725Z,7.20
2022-11-29T09:57:10.518Z,7.14
2022-11-29T10:01:35.048Z,6.98
2022-11-29T10:06:00.708Z,7.13
2022-11-29T10:10:31.443Z,7.17
2022-11-29T10:14:57.204Z,7.07
2022-11-29T10:19:50.407Z,7.24
2022-11-29T10:24:07.834Z,7.30
2022-11-29T10:28:23.046Z,7.18
2022-11-29T10:32:35.316Z,7.35
2022-11-29T10:36:51.406Z,7.18
2022-11-29T10:41:09.830Z,7.46
2022-11-29T10:45:39.827Z,7.77
2022-11-29T10:49:52.260Z,7.89
2022-11-29T10:54:30.450Z,7.60
2022-11-29T10:59:05.238Z,7.62
2022-11-29T11:03:48.954Z,7.72
2022-11-29T11:08:06.254Z,7.42
2022-11-29T11:12:24.743Z,7.54
2022-11-29T11:16:37.759Z,7.40
2022-11-29T11:20:55.675Z,7.43
2022-11-29T11:25:28.195Z,7.68
2022-11-29T11:29:45.563Z,7.57
2022-11-29T11:34:18.232Z,7.58
2022-11-29T11:38:31.056Z,7.51
2022-11-29T11:42:43.606Z,7.56
2022-11-29T11:46:56.543Z,7.56
2022-11-29T11:51:21.180Z,7.64
2022-11-29T11:55:36.988Z,7.34
2022-11-29T11:59:51.058Z,7.49
2022-11-29T12:04:18.073Z,7.67
2022-11-29T12:08:30.613Z,7.65
2022-11-29T12:12:45.201Z,7.68
2022-11-29T12:17:08.592Z,7.81
2022-11-29T12:21:26.419Z,7.49
2022-11-29T12:26:03.532Z,7.94
2022-11-29T12:30:16.422Z,7.74
2022-11-29T12:34:51.496Z,7.57
2022-11-29T12:39:10.334Z,7.55
2022-11-29T12:44:14.815Z,7.28
2022-11-29T12:48:56.838Z,7.38
2022-11-29T12:53:33.708Z,7.15
2022-11-29T12:57:57.916Z,7.29
2022-11-29T13:02:34.275Z,7.40
2022-11-29T13:07:17.600Z,7.24
2022-11-29T13:11:37.106Z,7.14
2022-11-29T13:16:31.025Z,7.19
2022-11-29T13:20:53.603Z,7.33
2022-11-29T13:25:19.015Z,7.14
2022-11-29T13:29:31.930Z,6.95
2022-11-29T13:33:47.203Z,7.01
2022-11-29T13:38:08.987Z,7.14
2022-11-29T13:42:46.224Z,6.66
2022-11-29T13:47:08.191Z,6.63
2022-11-29T13:51:38.431Z,6.58
2022-11-29T13:56:00.775Z,6.51
2022-11-29T14:00:31.982Z,6.54
2022-11-29T14:04:46.980Z,6.32
2022-11-29T14:09:19.610Z,6.16
2022-11-29T14:13:44.637Z,6.24
2022-11-29T14:18:38.746Z,6.02
2022-11-29T14:23:06.064Z,6.01
2022-11-29T14:27:21.320Z,6.01
2022-11-29T14:31:49.325Z,6.01
2022-11-29T14:36:26.127Z,5.87
2022-11-29T14:40:41.193Z,5.81
2022-11-29T14:45:05.503Z,5.90
2022-11-29T14:49:25.341Z,5.54
2022-11-29T14:53:39.353Z,5.33
2022-11-29T14:57:51.971Z,5.46
2022-11-29T15:02:20.854Z,5.57
2022-11-29T15:06:38.213Z,5.47
2022-11-29T15:10:58.378Z,5.45
2022-11-29T15:15:28.949Z,5.29
2022-11-29T15:20:13.603Z,5.42
2022-11-29T15:24:28.764Z,5.39
2022-11-29T15:28:42.481Z,5.40
2022-11-29T15:32:55.107Z,5.29
2022-11-29T15:37:07.481Z,5.20
2022-11-29T15:41:30.904Z,5.27
2022-11-29T15:45:57.516Z,5.37
2022-11-29T15:50:26.429Z,5.38
2022-11-29T15:54:46.532Z,5.45
2022-11-29T15:59:33.910Z,5.32
2022-11-29T16:03:47.865Z,5.20
2022-11-29T16:08:17.950Z,5.25
2022-11-29T16:13:03.091Z,5.16
2022-11-29T16:17:16.125Z,5.13
2022-11-29T16:21:29.862Z,5.08
2022-11-29T16:25:55.631Z,5.25
2022-11-29T16:30:08.830Z,5.10
2022-11-29T16:34:31.427Z,5.31
2022-11-29T16:38:50.063Z,5.24
2022-11-29T16:43:07.265Z,4.96
2022-11-29T16:47:23.552Z,4.95
2022-11-29T16:51:56.078Z,4.88
2022-11-29T16:56:13.214Z,4.97
2022-11-29T17:00:32.356Z,4.90
2022-11-29T17:04:45.170Z,4.99
2022-11-29T17:09:00.172Z,4.96
2022-11-29T17:13:12.983Z,5.04
2022-11-29T17:17:25.265Z,4.97
2022-11-29T17:21:37.679Z,4.96
2022-11-29T17:25:59.800Z,5.01
2022-11-29T17:30:12.629Z,5.12
2022-11-29T17:34:25.096Z,4.98
2022-11-29T17:38:37.700Z,5.13
2022-11-29T17:42:49.995Z,5.13
2022-11-29T17:47:02.367Z,4.96
2022-11-29T17:51:43.614Z,4.91
2022-11-29T17:55:49.057Z,4.85
2022-11-29T18:00:01.367Z,4.93
2022-11-29T18:04:13.711Z,4.97
2022-11-29T18:08:26.002Z,4.91
2022-11-29T18:12:38.322Z,4.97
2022-11-29T18:16:51.132Z,4.83
2022-11-29T18:21:06.046Z,4.86
2022-11-29T18:25:38.173Z,4.84
2022-11-29T18:29:57.586Z,4.82
2022-11-29T18:34:11.942Z,4.86
2022-11-29T18:38:24.203Z,4.76
2022-11-29T18:42:36.478Z,4.83
2022-11-29T18:46:49.175Z,4.83
2022-11-29T18:51:10.491Z,4.81
2022-11-29T18:55:33.198Z,4.67
2022-11-29T18:59:45.531Z,4.63
2022-11-29T19:04:00.102Z,4.70
2022-11-29T19:08:12.538Z,4.58
2022-11-29T19:12:24.814Z,4.62
2022-11-29T19:16:37.130Z,4.62
2022-11-29T19:20:49.708Z,4.62
2022-11-29T19:25:01.991Z,4.52
2022-11-29T19:29:14.916Z,4.46
2022-11-29T19:33:27.262Z,4.54
2022-11-29T19:37:39.579Z,4.32
2022-11-29T19:41:51.820Z,4.29
2022-11-29T19:46:15.332Z,4.31
2022-11-29T19:50:27.706Z,4.36
2022-11-29T19:54:39.949Z,4.33
2022-11-29T19:58:53.133Z,4.29
2022-11-29T20:03:05.470Z,4.12
2022-11-29T20:07:17.783Z,4.10
2022-11-29T20:11:30.735Z,3.82
2022-11-29T20:15:43.058Z,3.83
2022-11-29T20:19:55.429Z,3.68
2022-11-29T20:24:08.571Z,3.66
2022-11-29T20:28:20.848Z,3.44
2022-11-29T20:32:33.282Z,3.53
2022-11-29T20:36:51.779Z,3.62
2022-11-29T20:41:12.452Z,3.75
2022-11-29T20:45:26.210Z,3.80
2022-11-29T20:49:38.672Z,3.75
2022-11-29T20:53:51.002Z,3.75
2022-11-29T20:58:03.277Z,3.64
2022-11-29T21:02:15.593Z,3.70
2022-11-29T21:06:27.961Z,3.60
2022-11-29T21:10:40.712Z,3.71
2022-11-29T21:14:53.273Z,3.54
2022-11-29T21:19:06.053Z,3.51
2022-11-29T21:23:33.988Z,3.54
2022-11-29T21:27:57.332Z,3.50
2022-11-29T21:32:21.835Z,3.44
2022-11-29T21:36:34.144Z,3.25
2022-11-29T21:40:46.511Z,2.96
2022-11-29T21:45:13.414Z,3.02
2022-11-29T21:49:28.384Z,2.86
2022-11-29T21:53:41.531Z,2.85
2022-11-29T21:57:53.861Z,2.89
2022-11-29T22:02:06.487Z,2.89
2022-11-29T22:06:21.180Z,3.04
2022-11-29T22:10:33.663Z,3.08
2022-11-29T22:14:46.324Z,3.16
2022-11-29T22:18:58.843Z,3.10
2022-11-29T22:23:11.530Z,3.05
2022-11-29T22:27:23.814Z,2.95
2022-11-29T22:31:37.124Z,2.94
2022-11-29T22:35:49.422Z,2.89
2022-11-29T22:40:01.678Z,2.98
2022-11-29T22:44:13.958Z,2.92
2022-11-29T22:48:26.227Z,2.98
2022-11-29T22:52:38.555Z,2.94
2022-11-29T22:56:51.018Z,2.99
2022-11-29T23:01:08.360Z,3.05
2022-11-29T23:05:20.707Z,2.92
2022-11-29T23:09:32.981Z,2.90
2022-11-29T23:13:46.140Z,2.84
2022-11-29T23:17:58.468Z,2.95
2022-11-29T23:22:10.770Z,3.01
2022-11-29T23:26:24.705Z,3.15
2022-11-29T23:30:37.097Z,3.21
2022-11-29T23:34:49.424Z,3.34
2022-11-29T23:39:01.839Z,3.32
2022-11-29T23:43:22.446Z,3.23
2022-11-29T23:47:34.712Z,3.22
2022-11-29T23:51:46.993Z,3.33
2022-11-29T23:56:08.358Z,3.37
